Time;durP1;ratioP1;P1;durP2;ratioP2;P2;SDS_P1;SDS_P2;PMS_P1;PMS_P2;Temp;Humidity;BMP_temperature;BMP_pressure;BME280_temperature;BME280_humidity;BME280_pressure;Samples;Min_cycle;Max_cycle;Signal;HPM_P1;HPM_P2
2021/08/11 00:01:25;;;;;;;6.27;5.30;;;21.40;99.90;;;;;;5056765;28;20254;-64
2021/08/11 00:03:51;;;;;;;5.87;4.77;;;21.10;99.90;;;;;;5056397;28;20211;-57
2021/08/11 00:06:16;;;;;;;7.50;5.13;;;21.20;99.90;;;;;;5057307;28;20230;-61
2021/08/11 00:08:44;;;;;;;5.90;5.13;;;20.80;99.90;;;;;;5055875;28;20218;-59
2021/08/11 00:11:10;;;;;;;8.60;4.70;;;20.60;99.90;;;;;;5055158;28;20160;-61
2021/08/11 00:13:36;;;;;;;6.30;5.33;;;20.60;99.90;;;;;;5055290;28;20198;-58
2021/08/11 00:16:02;;;;;;;8.77;6.37;;;20.60;99.90;;;;;;5055525;28;20198;-65
2021/08/11 00:18:28;;;;;;;7.67;5.40;;;20.60;99.90;;;;;;5055951;28;20210;-54
2021/08/11 00:20:53;;;;;;;6.67;4.40;;;20.50;99.90;;;;;;5055053;28;20516;-64
2021/08/11 00:23:19;;;;;;;8.60;6.03;;;20.60;99.90;;;;;;5055113;28;20698;-64
2021/08/11 00:25:44;;;;;;;7.23;6.07;;;20.70;99.90;;;;;;5055318;28;20210;-60
2021/08/11 00:28:10;;;;;;;8.53;6.17;;;20.80;99.90;;;;;;5054641;28;20211;-66
2021/08/11 00:30:36;;;;;;;8.67;5.83;;;20.70;99.90;;;;;;5054963;28;20187;-56
2021/08/11 00:33:01;;;;;;;5.93;5.27;;;20.60;99.90;;;;;;5056577;28;20301;-58
2021/08/11 00:35:27;;;;;;;6.83;5.50;;;20.70;99.90;;;;;;5072180;28;20174;-56
2021/08/11 00:37:52;;;;;;;5.80;5.20;;;20.80;99.90;;;;;;5074769;28;20166;-56
2021/08/11 00:40:22;;;;;;;8.53;5.47;;;20.80;99.90;;;;;;5075129;28;20197;-61
2021/08/11 00:42:48;;;;;;;8.10;5.83;;;20.80;99.90;;;;;;5074737;28;20586;-65
2021/08/11 00:45:14;;;;;;;8.43;5.80;;;20.90;99.90;;;;;;5075122;28;20666;-66
2021/08/11 00:47:39;;;;;;;5.43;4.93;;;21.00;99.90;;;;;;5073544;28;20167;-63
2021/08/11 00:50:06;;;;;;;8.70;4.80;;;21.00;99.90;;;;;;5074321;28;20213;-63
2021/08/11 00:52:32;;;;;;;7.63;5.13;;;21.00;99.90;;;;;;5073704;28;20174;-58
2021/08/11 00:54:58;;;;;;;8.20;5.53;;;21.00;99.90;;;;;;5074978;28;20174;-59
2021/08/11 00:57:26;;;;;;;5.97;5.17;;;21.00;99.90;;;;;;5074612;28;20171;-58
2021/08/11 00:59:52;;;;;;;7.50;5.50;;;21.00;99.90;;;;;;5075030;28;20214;-60
2021/08/11 01:02:19;;;;;;;6.53;4.93;;;20.90;99.90;;;;;;5074540;28;20206;-60
2021/08/11 01:04:46;;;;;;;5.87;5.20;;;20.80;99.90;;;;;;5074464;28;20190;-65
2021/08/11 01:07:13;;;;;;;7.00;5.27;;;20.90;99.90;;;;;;5074703;28;20265;-62
2021/08/11 01:09:40;;;;;;;5.47;4.93;;;20.90;99.90;;;;;;5038922;28;1051378;-61
2021/08/11 01:12:06;;;;;;;8.53;5.43;;;20.80;99.90;;;;;;5075258;28;20186;-62
2021/08/11 01:14:33;;;;;;;7.40;5.43;;;20.80;99.90;;;;;;5075234;28;20638;-64
2021/08/11 01:17:03;;;;;;;8.37;5.90;;;20.70;99.90;;;;;;5075076;28;20659;-65
2021/08/11 01:19:30;;;;;;;9.07;5.80;;;20.70;99.90;;;;;;5075212;28;20193;-64
2021/08/11 01:22:15;;;;;;;6.60;5.90;;;20.60;99.90;;;;;;5075160;28;20183;-59
2021/08/11 01:24:48;;;;;;;6.43;5.37;;;20.60;99.90;;;;;;5075071;28;20224;-61
2021/08/11 01:27:50;;;;;;;8.40;5.50;;;20.60;99.90;;;;;;5074933;28;20261;-59
2021/08/11 01:30:19;;;;;;;5.93;5.30;;;20.60;99.90;;;;;;5075245;28;20265;-64
2021/08/11 01:32:59;;;;;;;8.57;5.67;;;20.50;99.90;;;;;;5075093;28;20222;-61
2021/08/11 01:35:35;;;;;;;6.83;5.17;;;20.40;99.90;;;;;;5075082;28;20178;-58
2021/08/11 01:38:04;;;;;;;8.43;5.73;;;20.30;99.90;;;;;;5074534;28;20596;-55
2021/08/11 01:40:32;;;;;;;9.00;5.60;;;20.20;99.90;;;;;;5074592;28;20166;-65
2021/08/11 01:43:00;;;;;;;7.00;5.17;;;20.10;99.90;;;;;;5074582;28;20194;-62
2021/08/11 01:45:34;;;;;;;6.93;5.50;;;19.90;99.90;;;;;;5075112;28;20182;-61
2021/08/11 01:48:11;;;;;;;9.20;5.80;;;19.80;99.90;;;;;;5074516;28;20185;-56
2021/08/11 01:50:39;;;;;;;7.97;6.17;;;19.80;99.90;;;;;;5074963;28;20174;-65
2021/08/11 01:53:07;;;;;;;10.73;5.63;;;19.90;99.90;;;;;;5074062;28;20709;-64
2021/08/11 01:55:34;;;;;;;8.40;5.60;;;19.90;99.90;;;;;;5074816;28;20265;-64
2021/08/11 01:58:01;;;;;;;8.80;5.83;;;19.80;99.90;;;;;;5074861;28;20632;-63
2021/08/11 02:00:27;;;;;;;10.93;5.80;;;19.80;99.90;;;;;;5075313;28;20171;-63
2021/08/11 02:02:53;;;;;;;7.97;6.10;;;19.70;99.90;;;;;;5074172;28;20197;-64
2021/08/11 02:05:22;;;;;;;6.70;5.40;;;19.60;99.90;;;;;;5074465;28;20182;-65
2021/08/11 02:07:48;;;;;;;9.03;6.50;;;19.60;99.90;;;;;;5073893;28;20249;-63
2021/08/11 02:10:16;;;;;;;8.37;5.80;;;19.60;99.90;;;;;;5074480;28;20621;-65
2021/08/11 02:12:42;;;;;;;9.37;6.60;;;19.60;99.90;;;;;;5073976;28;20170;-65
2021/08/11 02:15:09;;;;;;;13.33;6.17;;;19.70;99.90;;;;;;5073848;28;20175;-64
2021/08/11 02:17:39;;;;;;;9.03;6.10;;;19.60;99.90;;;;;;5074339;28;20182;-64
2021/08/11 02:20:07;;;;;;;8.57;5.73;;;19.70;99.90;;;;;;5073954;28;20642;-58
2021/08/11 02:22:32;;;;;;;7.93;5.73;;;19.70;99.90;;;;;;5073798;28;20622;-60
2021/08/11 02:24:58;;;;;;;6.50;5.63;;;19.70;99.90;;;;;;5074115;28;20174;-64
2021/08/11 02:27:30;;;;;;;7.33;5.47;;;19.80;99.90;;;;;;5074659;28;20210;-62
2021/08/11 02:30:19;;;;;;;9.73;6.37;;;19.80;99.90;;;;;;5062323;28;20249;-64
2021/08/11 02:32:58;;;;;;;9.47;6.47;;;19.90;99.90;;;;;;5053933;28;20163;-59
2021/08/11 02:35:28;;;;;;;10.73;7.93;;;20.00;99.90;;;;;;5053830;28;20159;-65
2021/08/11 02:38:18;;;;;;;9.90;7.63;;;20.00;99.90;;;;;;5053702;28;20219;-65
2021/08/11 02:40:52;;;;;;;8.73;6.87;;;19.90;99.90;;;;;;5053554;28;20191;-65
2021/08/11 02:43:27;;;;;;;6.73;6.03;;;19.80;99.90;;;;;;5054283;28;20245;-63
2021/08/11 02:46:02;;;;;;;8.33;6.53;;;19.80;99.90;;;;;;5054202;28;20167;-65
2021/08/11 02:48:29;;;;;;;9.97;6.47;;;19.80;99.90;;;;;;5053969;28;20182;-65
2021/08/11 02:50:55;;;;;;;7.20;5.70;;;19.70;99.90;;;;;;5053982;28;20186;-61
2021/08/11 02:53:23;;;;;;;6.93;6.23;;;19.70;99.90;;;;;;5053620;28;20647;-64
2021/08/11 02:55:49;;;;;;;7.87;6.10;;;19.70;99.90;;;;;;5053895;28;20692;-59
2021/08/11 02:58:17;;;;;;;7.03;6.00;;;19.60;99.90;;;;;;5053319;28;20724;-60
2021/08/11 03:00:43;;;;;;;6.17;5.57;;;19.70;99.90;;;;;;5054330;28;20246;-53
2021/08/11 03:03:09;;;;;;;8.50;6.80;;;19.50;99.90;;;;;;5053101;28;20234;-64
2021/08/11 03:05:34;;;;;;;9.43;6.63;;;19.50;99.90;;;;;;5053581;28;20177;-65
2021/08/11 03:08:00;;;;;;;8.63;6.17;;;19.50;99.90;;;;;;5053248;28;20200;-64
2021/08/11 03:10:26;;;;;;;6.27;5.67;;;19.50;99.90;;;;;;5053304;28;20738;-61
2021/08/11 03:12:52;;;;;;;8.23;6.10;;;19.50;99.90;;;;;;5053677;28;20236;-61
2021/08/11 03:15:18;;;;;;;9.80;6.00;;;19.40;99.90;;;;;;5053354;28;20176;-64
2021/08/11 03:17:46;;;;;;;8.10;5.90;;;19.40;99.90;;;;;;5053425;28;20182;-65
2021/08/11 03:20:12;;;;;;;7.33;5.57;;;19.40;99.90;;;;;;5053453;28;20172;-63
2021/08/11 03:22:38;;;;;;;8.00;6.10;;;19.40;99.90;;;;;;5053363;28;20678;-61
2021/08/11 03:25:05;;;;;;;8.13;5.70;;;19.40;99.90;;;;;;5053454;28;20171;-65
2021/08/11 03:27:31;;;;;;;10.50;6.03;;;19.40;99.90;;;;;;5053225;28;20172;-59
2021/08/11 03:29:56;;;;;;;7.30;5.63;;;19.30;99.90;;;;;;5053970;28;20171;-65
2021/08/11 03:32:22;;;;;;;11.00;6.00;;;19.30;99.90;;;;;;5053110;28;20186;-65
2021/08/11 03:34:47;;;;;;;8.60;5.73;;;19.20;99.90;;;;;;5053224;28;20197;-57
2021/08/11 03:37:16;;;;;;;6.70;5.60;;;19.20;99.90;;;;;;5053285;28;20174;-55
2021/08/11 03:39:42;;;;;;;6.30;5.53;;;19.20;99.90;;;;;;5052852;28;20223;-64
2021/08/11 03:42:07;;;;;;;6.10;5.50;;;19.10;99.90;;;;;;5053039;28;20666;-61
2021/08/11 03:44:33;;;;;;;6.37;5.70;;;19.10;99.90;;;;;;5052916;28;20525;-63
2021/08/11 03:46:58;;;;;;;7.93;5.90;;;19.10;99.90;;;;;;5052992;28;20189;-65
2021/08/11 03:49:24;;;;;;;9.10;6.20;;;19.10;99.90;;;;;;5053180;28;20203;-62
2021/08/11 03:51:49;;;;;;;6.70;6.00;;;19.10;99.90;;;;;;5053092;28;20182;-58
2021/08/11 03:54:15;;;;;;;6.63;5.67;;;19.10;99.90;;;;;;5052877;28;20260;-64
2021/08/11 03:56:41;;;;;;;9.03;5.93;;;19.10;99.90;;;;;;5052996;28;20170;-57
2021/08/11 03:59:06;;;;;;;8.70;5.77;;;19.00;99.90;;;;;;5052574;28;20255;-65
2021/08/11 04:01:32;;;;;;;6.47;5.60;;;18.90;99.90;;;;;;5052764;28;20163;-65
2021/08/11 04:03:57;;;;;;;7.07;5.57;;;18.90;99.90;;;;;;5056536;28;20235;-65
2021/08/11 04:06:23;;;;;;;6.23;5.63;;;18.80;99.90;;;;;;5056587;28;20701;-56
2021/08/11 04:08:48;;;;;;;6.40;5.73;;;18.90;99.90;;;;;;5056616;28;20217;-56
2021/08/11 04:11:14;;;;;;;6.40;5.50;;;18.80;99.90;;;;;;5056742;28;20201;-55
2021/08/11 04:13:39;;;;;;;9.83;5.60;;;18.90;99.90;;;;;;5056217;28;20217;-65
2021/08/11 04:16:05;;;;;;;7.67;5.53;;;18.90;99.90;;;;;;5057457;28;20171;-61
2021/08/11 04:18:31;;;;;;;9.00;5.60;;;18.90;99.90;;;;;;5056384;28;20209;-60
2021/08/11 04:20:56;;;;;;;6.93;5.80;;;18.90;99.90;;;;;;5056685;28;20178;-58
2021/08/11 04:23:22;;;;;;;8.60;5.47;;;18.90;99.90;;;;;;5056278;28;20201;-61
2021/08/11 04:25:48;;;;;;;8.77;5.50;;;18.90;99.90;;;;;;5057048;28;20174;-65
2021/08/11 04:28:13;;;;;;;6.27;5.50;;;18.90;99.90;;;;;;5056539;28;20178;-53
2021/08/11 04:30:40;;;;;;;8.10;6.30;;;19.00;99.90;;;;;;5054939;28;20178;-65
2021/08/11 04:33:06;;;;;;;7.50;5.33;;;19.00;99.90;;;;;;5055873;28;20210;-61
2021/08/11 04:35:32;;;;;;;7.17;6.40;;;19.10;99.90;;;;;;5055773;28;20171;-65
2021/08/11 04:37:58;;;;;;;11.43;7.80;;;19.20;99.90;;;;;;5056357;28;20251;-60
2021/08/11 04:40:23;;;;;;;8.90;7.60;;;19.10;99.90;;;;;;5055828;28;20251;-63
2021/08/11 04:42:49;;;;;;;8.03;6.57;;;19.10;99.90;;;;;;5056337;28;20163;-61
2021/08/11 04:45:15;;;;;;;8.40;6.33;;;19.00;99.90;;;;;;5055882;28;20641;-64
2021/08/11 04:47:40;;;;;;;9.97;6.47;;;19.10;99.90;;;;;;5056042;28;20175;-57
2021/08/11 04:50:06;;;;;;;8.83;6.70;;;19.00;99.90;;;;;;5056287;28;20261;-60
2021/08/11 04:52:32;;;;;;;8.33;6.33;;;19.00;99.90;;;;;;5055294;28;20191;-65
2021/08/11 04:54:58;;;;;;;8.60;6.07;;;19.00;99.90;;;;;;5055810;28;20160;-64
2021/08/11 04:57:23;;;;;;;7.23;6.20;;;19.20;99.90;;;;;;5055530;28;20172;-61
2021/08/11 04:59:49;;;;;;;7.70;6.40;;;19.30;99.90;;;;;;5055414;28;20248;-56
2021/08/11 05:02:14;;;;;;;8.10;6.00;;;19.30;99.90;;;;;;5055441;28;20172;-63
2021/08/11 05:04:40;;;;;;;7.87;6.27;;;19.40;99.90;;;;;;5055744;28;20285;-65
2021/08/11 05:07:09;;;;;;;7.83;6.27;;;19.40;99.90;;;;;;5055928;28;20626;-61
2021/08/11 05:09:35;;;;;;;8.57;5.90;;;19.40;99.90;;;;;;5055026;28;20206;-65
2021/08/11 05:12:01;;;;;;;7.70;6.73;;;19.40;99.90;;;;;;5055199;28;20172;-64
2021/08/11 05:14:27;;;;;;;7.93;7.00;;;19.40;99.90;;;;;;5054298;28;20210;-61
2021/08/11 05:16:53;;;;;;;9.17;7.00;;;19.50;99.90;;;;;;5055592;28;20168;-59
2021/08/11 05:19:18;;;;;;;6.90;6.17;;;19.60;99.90;;;;;;5055050;28;20219;-65
2021/08/11 05:21:44;;;;;;;8.63;7.00;;;19.60;99.90;;;;;;5055016;28;20189;-60
2021/08/11 05:24:11;;;;;;;9.13;6.43;;;19.60;99.90;;;;;;5055458;28;20203;-59
2021/08/11 05:26:37;;;;;;;8.00;7.17;;;19.60;99.90;;;;;;5055688;28;20523;-65
2021/08/11 05:29:03;;;;;;;7.33;6.57;;;19.50;99.90;;;;;;5055043;28;20634;-61
2021/08/11 05:31:29;;;;;;;6.87;6.13;;;19.60;99.90;;;;;;5054497;28;20197;-57
2021/08/11 05:33:55;;;;;;;6.93;6.00;;;19.70;99.90;;;;;;5061744;28;20683;-58
2021/08/11 05:36:21;;;;;;;7.67;5.93;;;19.80;99.90;;;;;;5064704;28;20178;-63
2021/08/11 05:38:46;;;;;;;8.47;6.73;;;19.80;99.90;;;;;;5057700;28;20203;-65
2021/08/11 05:41:12;;;;;;;7.50;6.70;;;19.80;99.90;;;;;;5054931;28;20183;-65
2021/08/11 05:43:37;;;;;;;7.93;7.00;;;19.80;99.90;;;;;;5055227;28;20191;-59
2021/08/11 05:46:05;;;;;;;11.83;7.50;;;19.70;99.90;;;;;;5054779;28;20160;-65
2021/08/11 05:48:30;;;;;;;8.30;6.50;;;19.70;99.90;;;;;;5054816;28;20183;-64
2021/08/11 05:50:56;;;;;;;7.93;6.97;;;19.70;99.90;;;;;;5063211;28;20210;-58
2021/08/11 05:53:22;;;;;;;7.70;6.27;;;19.60;99.90;;;;;;5072209;28;20191;-57
2021/08/11 05:55:47;;;;;;;7.80;5.80;;;19.70;99.90;;;;;;5073433;28;20212;-60
2021/08/11 05:58:13;;;;;;;6.90;5.67;;;19.90;99.90;;;;;;5079256;28;20206;-64
2021/08/11 06:00:38;;;;;;;6.90;6.20;;;20.10;99.90;;;;;;5072057;28;20257;-65
2021/08/11 06:03:04;;;;;;;8.23;7.07;;;20.20;99.90;;;;;;5073895;28;20666;-61
2021/08/11 06:05:30;;;;;;;8.07;6.20;;;20.30;99.90;;;;;;5074014;28;20155;-61
2021/08/11 06:07:55;;;;;;;7.60;5.70;;;20.30;99.90;;;;;;5074194;28;20266;-64
2021/08/11 06:10:21;;;;;;;7.17;5.77;;;20.30;99.90;;;;;;5073798;28;20167;-64
2021/08/11 06:12:51;;;;;;;7.93;5.53;;;20.50;99.90;;;;;;5073013;28;20194;-60
2021/08/11 06:15:17;;;;;;;5.90;5.40;;;20.60;99.90;;;;;;5074303;28;20169;-65
2021/08/11 06:17:47;;;;;;;8.13;5.60;;;20.60;99.90;;;;;;5073761;28;20170;-63
2021/08/11 06:20:13;;;;;;;5.37;4.87;;;20.70;99.90;;;;;;5073610;28;20211;-62
2021/08/11 06:22:39;;;;;;;7.37;5.63;;;20.90;99.90;;;;;;5073262;28;20170;-59
2021/08/11 06:25:06;;;;;;;9.70;5.80;;;21.10;99.90;;;;;;5073259;28;20195;-64
2021/08/11 06:27:32;;;;;;;8.00;5.13;;;21.00;99.90;;;;;;5073913;28;20175;-65
2021/08/11 06:29:58;;;;;;;7.47;5.83;;;20.90;99.90;;;;;;5073659;28;20182;-60
2021/08/11 06:32:23;;;;;;;7.17;5.80;;;21.00;99.90;;;;;;5073424;28;20171;-61
2021/08/11 06:34:49;;;;;;;8.47;6.17;;;21.10;99.90;;;;;;5073592;28;20516;-63
2021/08/11 06:37:14;;;;;;;8.60;5.80;;;21.20;99.90;;;;;;5073002;28;20178;-64
2021/08/11 06:39:40;;;;;;;6.87;5.30;;;21.20;99.90;;;;;;5073240;28;20222;-59
2021/08/11 06:42:05;;;;;;;8.37;5.70;;;21.20;99.90;;;;;;5073542;28;20205;-65
2021/08/11 06:44:31;;;;;;;7.40;5.27;;;21.10;99.90;;;;;;5073062;28;20244;-64
2021/08/11 06:46:56;;;;;;;7.37;5.73;;;21.00;99.90;;;;;;5073547;28;20171;-61
2021/08/11 06:49:22;;;;;;;6.50;5.77;;;21.00;99.90;;;;;;5072362;28;20232;-58
2021/08/11 06:51:47;;;;;;;10.53;6.77;;;21.20;99.90;;;;;;5073251;28;20167;-65
2021/08/11 06:54:14;;;;;;;7.77;6.40;;;21.30;99.90;;;;;;5073466;28;20191;-66
2021/08/11 06:56:40;;;;;;;8.77;5.67;;;21.40;99.90;;;;;;5073630;28;20577;-58
2021/08/11 06:59:06;;;;;;;9.67;6.30;;;21.50;99.90;;;;;;5073647;28;20735;-66
2021/08/11 07:01:32;;;;;;;11.82;5.93;;;21.50;99.90;;;;;;5073384;28;20166;-63
2021/08/11 07:03:58;;;;;;;6.27;5.67;;;21.70;99.90;;;;;;5068189;28;20236;-66
2021/08/11 07:06:24;;;;;;;8.55;5.93;;;21.80;99.90;;;;;;5052935;28;20168;-65
2021/08/11 07:08:49;;;;;;;9.77;6.60;;;21.70;99.90;;;;;;5053383;28;20200;-62
2021/08/11 07:11:15;;;;;;;6.70;5.80;;;21.80;99.90;;;;;;5053534;28;20175;-65
2021/08/11 07:13:40;;;;;;;9.52;6.18;;;21.90;99.90;;;;;;5054416;28;20199;-61
2021/08/11 07:16:06;;;;;;;5.32;4.82;;;21.90;99.90;;;;;;5062176;28;20180;-64
2021/08/11 07:18:32;;;;;;;5.85;5.13;;;21.90;99.90;;;;;;5062935;28;20219;-64
2021/08/11 07:20:58;;;;;;;6.45;5.15;;;22.10;99.90;;;;;;5059176;28;20637;-65
2021/08/11 07:23:24;;;;;;;8.25;5.53;;;22.10;99.90;;;;;;5053397;28;20200;-66
2021/08/11 07:25:49;;;;;;;6.10;5.32;;;22.10;99.90;;;;;;5053655;28;20175;-60
2021/08/11 07:28:15;;;;;;;6.85;5.00;;;22.10;99.90;;;;;;5053523;28;20230;-59
2021/08/11 07:30:43;;;;;;;5.65;5.07;;;22.10;99.90;;;;;;5053514;28;20194;-61
2021/08/11 07:33:09;;;;;;;5.90;5.10;;;22.20;99.90;;;;;;5053506;28;20201;-60
2021/08/11 07:35:38;;;;;;;6.07;5.47;;;22.30;99.90;;;;;;5053685;28;20238;-64
2021/08/11 07:38:06;;;;;;;7.07;5.95;;;22.40;99.90;;;;;;5056537;28;20174;-66
2021/08/11 07:40:33;;;;;;;9.80;6.07;;;22.50;99.90;;;;;;5057454;28;20175;-57
2021/08/11 07:43:00;;;;;;;7.43;5.50;;;22.40;99.90;;;;;;5057104;28;20666;-66
2021/08/11 07:45:29;;;;;;;6.18;5.10;;;22.30;99.90;;;;;;5057609;28;20201;-65
2021/08/11 07:47:54;;;;;;;7.28;5.22;;;22.50;99.90;;;;;;5057013;28;20176;-66
2021/08/11 07:50:22;;;;;;;5.90;5.25;;;22.50;99.90;;;;;;5057844;28;20570;-64
2021/08/11 07:52:48;;;;;;;5.88;5.07;;;22.40;99.90;;;;;;5057276;28;20247;-53
2021/08/11 07:55:16;;;;;;;6.07;5.13;;;22.30;99.90;;;;;;5057174;28;20262;-61
2021/08/11 07:57:42;;;;;;;6.72;5.00;;;22.30;99.90;;;;;;5057175;28;20539;-55
2021/08/11 08:00:10;;;;;;;5.13;4.50;;;22.40;99.90;;;;;;5056619;28;20706;-60
2021/08/11 08:02:35;;;;;;;7.38;4.60;;;22.60;99.90;;;;;;5056566;28;20177;-66
2021/08/11 08:05:03;;;;;;;4.88;4.35;;;22.70;99.90;;;;;;5056572;28;20240;-65
2021/08/11 08:07:30;;;;;;;4.68;3.50;;;22.70;99.90;;;;;;5056994;28;20175;-60
2021/08/11 08:09:56;;;;;;;6.78;4.30;;;22.60;99.90;;;;;;5056444;28;20241;-62
2021/08/11 08:12:22;;;;;;;5.63;4.22;;;22.70;99.90;;;;;;5061490;28;20634;-64
2021/08/11 08:14:47;;;;;;;7.93;4.32;;;22.80;99.90;;;;;;5064757;28;20207;-59
2021/08/11 08:17:13;;;;;;;6.20;4.78;;;22.80;99.90;;;;;;5065202;28;20166;-61
2021/08/11 08:19:39;;;;;;;4.90;4.25;;;22.70;99.90;;;;;;5066296;28;20206;-64
2021/08/11 08:22:05;;;;;;;5.95;4.05;;;22.80;99.90;;;;;;5064293;28;20172;-61
2021/08/11 08:24:32;;;;;;;6.57;4.13;;;22.80;99.90;;;;;;5065243;28;20198;-60
2021/08/11 08:26:59;;;;;;;5.20;4.20;;;22.70;99.90;;;;;;5069203;28;20201;-65
2021/08/11 08:29:24;;;;;;;6.28;4.47;;;22.70;99.90;;;;;;5074494;28;20178;-61
2021/08/11 08:31:50;;;;;;;4.38;3.97;;;22.70;99.90;;;;;;5074082;28;20178;-59
2021/08/11 08:34:16;;;;;;;5.03;3.78;;;22.90;99.90;;;;;;5071272;28;20191;-63
2021/08/11 08:36:41;;;;;;;6.03;3.95;;;23.00;99.90;;;;;;5087601;28;20213;-62
2021/08/11 08:39:07;;;;;;;4.63;4.03;;;23.20;99.90;;;;;;5094162;28;20201;-61
2021/08/11 08:41:34;;;;;;;14.70;7.60;;;23.40;99.90;;;;;;5093630;28;20193;-64
2021/08/11 08:44:00;;;;;;;19.75;9.07;;;23.40;99.90;;;;;;5094659;28;20689;-64
2021/08/11 08:46:26;;;;;;;8.40;5.70;;;23.40;99.90;;;;;;5096233;28;20555;-57
2021/08/11 08:48:52;;;;;;;5.93;3.97;;;23.70;99.90;;;;;;5095806;28;20249;-65
2021/08/11 08:51:21;;;;;;;6.72;4.90;;;24.00;99.90;;;;;;5095632;28;20255;-62
2021/08/11 08:53:47;;;;;;;5.65;4.60;;;24.00;99.90;;;;;;5096510;28;20190;-66
2021/08/11 08:56:13;;;;;;;6.22;4.20;;;23.90;99.90;;;;;;5095936;28;20174;-62
2021/08/11 08:58:39;;;;;;;5.40;4.38;;;23.80;99.90;;;;;;5095606;28;20274;-62
2021/08/11 09:01:05;;;;;;;4.15;3.72;;;23.80;99.90;;;;;;5096646;28;20202;-65
2021/08/11 09:03:30;;;;;;;6.00;4.00;;;23.70;99.90;;;;;;5095922;28;20185;-59
2021/08/11 09:05:56;;;;;;;4.78;3.67;;;23.80;99.90;;;;;;5095531;28;20175;-63
2021/08/11 09:08:22;;;;;;;5.85;3.83;;;23.80;99.90;;;;;;5095661;28;20214;-64
2021/08/11 09:10:47;;;;;;;4.47;3.53;;;24.10;99.90;;;;;;5095951;28;20676;-64
2021/08/11 09:13:23;;;;;;;4.40;3.95;;;24.10;99.90;;;;;;5095776;28;20190;-64
2021/08/11 09:15:54;;;;;;;4.57;3.60;;;24.00;99.90;;;;;;5096130;28;20157;-66
2021/08/11 09:18:22;;;;;;;4.63;3.42;;;24.20;99.90;;;;;;5095576;28;20235;-64
2021/08/11 09:21:10;;;;;;;7.30;3.60;;;24.50;99.90;;;;;;5095251;28;20182;-64
2021/08/11 09:23:40;;;;;;;4.32;3.20;;;24.50;99.90;;;;;;5095769;28;20263;-66
2021/08/11 09:26:08;;;;;;;4.22;3.40;;;24.20;99.90;;;;;;5095263;28;20170;-66
2021/08/11 09:28:36;;;;;;;4.75;3.78;;;24.20;99.90;;;;;;5095486;28;20202;-65
2021/08/11 09:31:32;;;;;;;5.03;3.60;;;24.30;99.90;;;;;;5095624;28;20174;-66
2021/08/11 09:34:00;;;;;;;6.68;3.40;;;24.20;99.90;;;;;;5095498;28;20657;-63
2021/08/11 09:36:26;;;;;;;4.15;3.50;;;24.30;99.90;;;;;;5095983;28;20182;-65
2021/08/11 09:38:57;;;;;;;4.30;3.25;;;24.20;99.90;;;;;;5095051;28;20197;-65
2021/08/11 09:41:24;;;;;;;4.72;3.60;;;24.40;99.90;;;;;;5095038;28;20211;-66
2021/08/11 09:44:05;;;;;;;5.32;3.15;;;24.40;99.90;;;;;;5094558;28;20570;-62
2021/08/11 09:46:31;;;;;;;5.72;3.55;;;24.30;99.90;;;;;;5095162;28;20170;-65
2021/08/11 09:48:58;;;;;;;4.15;3.35;;;24.30;99.90;;;;;;5094063;28;20522;-65
2021/08/11 09:51:23;;;;;;;4.78;3.15;;;24.50;99.90;;;;;;5094173;28;20240;-64
2021/08/11 09:53:49;;;;;;;3.40;3.10;;;24.50;99.90;;;;;;5094871;28;20368;-65
2021/08/11 09:56:15;;;;;;;3.33;2.90;;;24.40;99.90;;;;;;5095331;28;20618;-64
2021/08/11 09:58:46;;;;;;;3.88;2.80;;;24.40;99.90;;;;;;5094585;28;20210;-59
2021/08/11 10:01:13;;;;;;;3.50;3.20;;;24.90;99.90;;;;;;5094292;28;20178;-62
2021/08/11 10:04:00;;;;;;;3.45;3.13;;;25.20;99.90;;;;;;5094385;28;20205;-59
2021/08/11 10:06:34;;;;;;;3.90;2.88;;;25.40;99.90;;;;;;5094701;28;20190;-65
2021/08/11 10:09:15;;;;;;;4.45;3.40;;;25.20;99.90;;;;;;5094459;28;20255;-65
2021/08/11 10:11:47;;;;;;;4.97;3.35;;;25.10;99.90;;;;;;5094384;28;20178;-62
2021/08/11 10:14:15;;;;;;;3.17;2.80;;;25.30;99.90;;;;;;5094853;28;20198;-58
2021/08/11 10:16:41;;;;;;;4.05;3.40;;;25.30;99.90;;;;;;5094423;28;20573;-62
2021/08/11 10:19:08;;;;;;;3.20;2.90;;;25.20;99.90;;;;;;5093860;28;20218;-65
2021/08/11 10:21:43;;;;;;;4.07;3.13;;;25.20;99.90;;;;;;5094621;28;20170;-65
2021/08/11 10:24:09;;;;;;;3.65;3.00;;;25.20;99.90;;;;;;5094431;28;20281;-64
2021/08/11 10:26:34;;;;;;;3.75;3.00;;;25.40;99.90;;;;;;5094839;28;20201;-59
2021/08/11 10:29:00;;;;;;;2.95;2.70;;;25.40;99.90;;;;;;5094190;28;20260;-57
2021/08/11 10:31:26;;;;;;;3.80;3.13;;;25.80;99.90;;;;;;5094323;28;20162;-60
2021/08/11 10:33:52;;;;;;;3.45;3.08;;;26.20;99.90;;;;;;5094299;28;20190;-63
2021/08/11 10:36:19;;;;;;;2.97;2.78;;;26.00;99.90;;;;;;5094365;28;20230;-55
2021/08/11 10:38:46;;;;;;;3.80;2.80;;;25.80;99.90;;;;;;5094234;28;20279;-65
2021/08/11 10:41:13;;;;;;;2.72;2.50;;;25.80;99.90;;;;;;5094302;28;20647;-57
2021/08/11 10:43:43;;;;;;;4.18;2.60;;;25.80;99.90;;;;;;5093688;28;20198;-62
2021/08/11 10:46:14;;;;;;;4.28;2.75;;;25.90;99.90;;;;;;5094257;28;20201;-65
2021/08/11 10:48:40;;;;;;;6.55;2.90;;;26.20;99.90;;;;;;5090755;28;20262;-60
2021/08/11 10:51:05;;;;;;;4.18;2.72;;;26.40;99.90;;;;;;5063069;28;20214;-59
2021/08/11 10:53:31;;;;;;;3.67;2.53;;;26.30;99.90;;;;;;5062894;28;20186;-60
2021/08/11 10:55:58;;;;;;;26.88;4.90;;;26.30;99.90;;;;;;5064371;28;20181;-66
2021/08/11 10:58:33;;;;;;;3.67;2.63;;;26.60;99.90;;;;;;5062517;28;20215;-66
2021/08/11 11:00:59;;;;;;;5.15;2.75;;;27.20;99.90;;;;;;5061909;28;20558;-65
2021/08/11 11:03:47;;;;;;;2.72;2.53;;;27.30;99.90;;;;;;5067973;28;20194;-63
2021/08/11 11:06:12;;;;;;;3.15;2.63;;;27.00;99.90;;;;;;5073624;28;20181;-61
2021/08/11 11:08:38;;;;;;;5.00;3.00;;;26.90;99.90;;;;;;5073149;28;20198;-66
2021/08/11 11:11:28;;;;;;;3.70;2.60;;;26.70;99.90;;;;;;5074711;28;20289;-66
2021/08/11 11:13:55;;;;;;;2.70;2.50;;;26.60;99.90;;;;;;5077968;28;20190;-61
2021/08/11 11:16:21;;;;;;;2.70;2.25;;;26.80;99.90;;;;;;5076471;28;20542;-59
2021/08/11 11:19:08;;;;;;;2.38;2.15;;;26.90;99.90;;;;;;5077345;28;20195;-65
2021/08/11 11:21:34;;;;;;;2.80;2.60;;;26.70;99.90;;;;;;5077439;28;20201;-58
2021/08/11 11:23:59;;;;;;;2.83;2.33;;;26.40;99.90;;;;;;5077549;28;20237;-64
2021/08/11 11:26:32;;;;;;;2.17;2.00;;;26.60;99.90;;;;;;5077852;28;20174;-57
2021/08/11 11:29:08;;;;;;;2.47;2.10;;;26.70;99.90;;;;;;5077262;28;20166;-65
2021/08/11 11:31:38;;;;;;;2.47;2.28;;;26.60;99.90;;;;;;5077560;28;20259;-58
2021/08/11 11:34:23;;;;;;;3.28;2.28;;;26.70;99.90;;;;;;5077599;28;20199;-66
2021/08/11 11:36:54;;;;;;;4.22;2.95;;;26.60;99.90;;;;;;5074028;28;20672;-65
2021/08/11 11:39:27;;;;;;;3.40;2.83;;;26.50;99.90;;;;;;5057192;28;20281;-60
2021/08/11 11:42:26;;;;;;;2.60;2.40;;;26.60;99.90;;;;;;5057127;28;20164;-66
2021/08/11 11:44:56;;;;;;;2.33;2.20;;;26.90;99.90;;;;;;5057118;28;20186;-66
2021/08/11 11:47:40;;;;;;;4.53;2.75;;;27.50;99.90;;;;;;5067103;28;20175;-64
2021/08/11 11:50:21;;;;;;;3.33;2.40;;;27.70;99.90;;;;;;5079073;28;20195;-65
2021/08/11 11:52:49;;;;;;;2.42;2.15;;;27.50;99.90;;;;;;5076387;28;20545;-61
2021/08/11 11:55:27;;;;;;;1.98;1.88;;;27.60;99.90;;;;;;5076677;28;20182;-62
2021/08/11 11:57:54;;;;;;;3.80;2.30;;;27.80;99.90;;;;;;5078988;28;20201;-64
2021/08/11 12:00:20;;;;;;;2.35;2.17;;;27.70;99.90;;;;;;5082867;28;20244;-60
2021/08/11 12:02:50;;;;;;;2.58;2.22;;;28.00;99.90;;;;;;5088414;28;20199;-66
2021/08/11 12:05:16;;;;;;;2.50;2.30;;;28.60;99.90;;;;;;5096329;28;20720;-62
2021/08/11 12:07:41;;;;;;;2.50;2.30;;;29.20;99.90;;;;;;5068116;28;20195;-65
2021/08/11 12:10:07;;;;;;;2.50;2.30;;;29.40;99.90;;;;;;5056674;28;20183;-64
2021/08/11 12:12:33;;;;;;;3.28;2.33;;;29.40;99.90;;;;;;5056297;28;20191;-66
2021/08/11 12:15:20;;;;;;;3.05;2.28;;;29.50;99.90;;;;;;5057110;28;20180;-57
2021/08/11 12:17:46;;;;;;;2.60;1.90;;;29.80;99.90;;;;;;5056485;28;20182;-60
2021/08/11 12:20:28;;;;;;;1.77;1.65;;;30.20;99.90;;;;;;5056554;28;20249;-60
2021/08/11 12:22:54;;;;;;;2.20;1.58;;;30.40;99.90;;;;;;5056265;28;20261;-62
2021/08/11 12:25:31;;;;;;;1.60;1.50;;;30.20;99.90;;;;;;5056350;28;20638;-65
2021/08/11 12:28:06;;;;;;;1.95;1.75;;;30.30;99.90;;;;;;5056433;28;20504;-65
2021/08/11 12:30:32;;;;;;;2.63;1.60;;;30.50;99.90;;;;;;5061085;28;20183;-66
2021/08/11 12:32:57;;;;;;;1.92;1.75;;;30.60;99.90;;;;;;5066103;28;20191;-66
2021/08/11 12:35:23;;;;;;;1.80;1.70;;;30.50;99.90;;;;;;5065381;28;20637;-63
2021/08/11 12:37:49;;;;;;;1.70;1.60;;;30.20;99.90;;;;;;5063901;28;20179;-61
2021/08/11 12:40:32;;;;;;;1.75;1.65;;;29.80;99.90;;;;;;5064362;28;20195;-64
2021/08/11 12:42:59;;;;;;;2.03;1.70;;;29.80;99.90;;;;;;5066191;28;20241;-60
2021/08/11 12:45:26;;;;;;;1.42;1.33;;;29.70;99.90;;;;;;5065959;28;20282;-65
2021/08/11 12:47:52;;;;;;;2.42;1.80;;;29.60;99.90;;;;;;5063237;28;20628;-64
2021/08/11 12:50:19;;;;;;;1.60;1.50;;;29.90;99.90;;;;;;5062194;28;20189;-62